Time;durP1;ratioP1;P1;durP2;ratioP2;P2;SDS_P1;SDS_P2;PMS_P1;PMS_P2;Temp;Humidity;BMP_temperature;BMP_pressure;BME280_temperature;BME280_humidity;BME280_pressure;Samples;Min_cycle;Max_cycle;Signal;HPM_P1;HPM_P2
2021/06/22 00:00:59;;;;;;;4.90;0.80;;;13.40;99.90;;;;;;4965324;29;20114;-81
2021/06/22 00:03:25;;;;;;;4.55;0.90;;;13.40;99.90;;;;;;4981601;28;20034;-82
2021/06/22 00:05:51;;;;;;;2.53;0.60;;;13.30;99.90;;;;;;4965338;28;20039;-82
2021/06/22 00:08:16;;;;;;;8.30;1.40;;;13.30;99.90;;;;;;4965509;29;20038;-82
2021/06/22 00:10:42;;;;;;;9.07;2.28;;;13.20;99.90;;;;;;4981433;28;20035;-81
2021/06/22 00:13:07;;;;;;;4.60;1.70;;;13.20;99.90;;;;;;4965209;28;20035;-82
2021/06/22 00:15:33;;;;;;;3.35;0.98;;;13.20;99.90;;;;;;4981111;28;20058;-82
2021/06/22 00:17:59;;;;;;;4.63;1.42;;;13.20;99.90;;;;;;4965191;29;20046;-82
2021/06/22 00:20:25;;;;;;;5.88;1.60;;;13.20;99.90;;;;;;4981119;28;20072;-82
2021/06/22 00:22:55;;;;;;;7.03;1.85;;;13.20;99.90;;;;;;4966122;28;20023;-82
2021/06/22 00:25:23;;;;;;;5.82;1.70;;;13.10;99.90;;;;;;4964892;28;20047;-82
2021/06/22 00:27:50;;;;;;;7.05;1.30;;;13.10;99.90;;;;;;4980938;28;20074;-82
2021/06/22 00:30:17;;;;;;;6.28;1.63;;;13.10;99.90;;;;;;4980980;28;20039;-82
2021/06/22 00:32:43;;;;;;;7.57;2.08;;;13.10;99.90;;;;;;4965703;28;20031;-81
2021/06/22 00:35:10;;;;;;;3.80;1.20;;;13.00;99.90;;;;;;4964653;29;20034;-83
2021/06/22 00:37:36;;;;;;;6.97;1.25;;;13.10;99.90;;;;;;4964550;29;20038;-82
2021/06/22 00:40:04;;;;;;;4.78;1.83;;;13.00;99.90;;;;;;4964637;29;20039;-81
2021/06/22 00:42:34;;;;;;;9.45;2.15;;;13.00;99.90;;;;;;4964534;29;20087;-82
2021/06/22 00:45:01;;;;;;;7.13;1.58;;;12.90;99.90;;;;;;4965776;28;20031;-82
2021/06/22 00:47:29;;;;;;;9.77;2.57;;;12.90;99.90;;;;;;4964452;28;20138;-81
2021/06/22 00:49:56;;;;;;;7.63;2.20;;;12.80;99.90;;;;;;4980575;28;20311;-81
2021/06/22 00:52:27;;;;;;;8.45;2.67;;;12.70;99.90;;;;;;4980351;28;20038;-82
2021/06/22 00:54:54;;;;;;;5.53;1.90;;;12.60;99.90;;;;;;4965320;28;20035;-83
2021/06/22 00:57:21;;;;;;;8.43;2.05;;;12.60;99.90;;;;;;4980197;28;20034;-82
2021/06/22 00:59:47;;;;;;;7.63;1.48;;;12.70;99.90;;;;;;4964203;29;20031;-82
2021/06/22 01:02:14;;;;;;;5.45;2.17;;;12.60;99.90;;;;;;4963852;29;20042;-81
2021/06/22 01:04:41;;;;;;;6.70;2.75;;;12.60;99.90;;;;;;4964071;28;20180;-81
2021/06/22 01:07:45;;;;;;;7.35;2.40;;;12.60;99.90;;;;;;4980206;28;20419;-81
2021/06/22 01:10:12;;;;;;;7.93;2.15;;;12.50;99.90;;;;;;4980048;28;20038;-82
2021/06/22 01:12:47;;;;;;;5.65;1.30;;;12.40;99.90;;;;;;4963772;29;20027;-81
2021/06/22 01:15:25;;;;;;;7.60;2.08;;;12.50;99.90;;;;;;4963823;29;20130;-81
2021/06/22 01:17:53;;;;;;;6.70;2.45;;;12.40;99.90;;;;;;4963806;28;20054;-82
2021/06/22 01:20:22;;;;;;;7.38;1.55;;;12.40;99.90;;;;;;4963967;29;20094;-81
2021/06/22 01:22:48;;;;;;;8.63;2.85;;;12.40;99.90;;;;;;4963718;28;20027;-81
2021/06/22 01:25:14;;;;;;;5.03;1.95;;;12.30;99.90;;;;;;4980015;28;20034;-82
2021/06/22 01:27:41;;;;;;;10.65;3.78;;;12.20;99.90;;;;;;4979808;28;20035;-82
2021/06/22 01:30:07;;;;;;;6.63;2.28;;;12.20;99.90;;;;;;4966034;28;20070;-82
2021/06/22 01:32:44;;;;;;;11.93;3.05;;;12.20;99.90;;;;;;4979767;28;20141;-82
2021/06/22 01:35:11;;;;;;;9.13;3.17;;;12.10;99.90;;;;;;4963827;28;20402;-82
2021/06/22 01:37:59;;;;;;;5.63;2.38;;;12.10;99.90;;;;;;4979786;28;20510;-82
2021/06/22 01:40:40;;;;;;;4.68;2.28;;;12.00;99.90;;;;;;4979703;28;20046;-83
2021/06/22 01:43:06;;;;;;;6.70;1.83;;;12.00;99.90;;;;;;4964800;28;20035;-82
2021/06/22 01:45:52;;;;;;;7.50;3.10;;;12.00;99.90;;;;;;4963428;29;20030;-81
2021/06/22 01:48:18;;;;;;;9.15;4.40;;;11.90;99.90;;;;;;4984167;28;20057;-82
2021/06/22 01:50:46;;;;;;;9.40;4.55;;;11.90;99.90;;;;;;4968540;28;20050;-81
2021/06/22 01:53:21;;;;;;;10.65;3.70;;;11.90;99.90;;;;;;4984423;28;20035;-83
2021/06/22 01:55:49;;;;;;;6.75;3.25;;;11.90;99.90;;;;;;4984503;28;20031;-82
2021/06/22 01:58:16;;;;;;;10.95;3.30;;;11.90;99.90;;;;;;4968356;28;20214;-82
2021/06/22 02:00:57;;;;;;;9.15;3.72;;;11.90;99.90;;;;;;4968410;28;20530;-82
2021/06/22 02:03:28;;;;;;;8.23;2.92;;;11.90;99.90;;;;;;4983536;28;20038;-83
2021/06/22 02:05:55;;;;;;;9.18;2.25;;;11.90;99.90;;;;;;4984572;28;20058;-81
2021/06/22 02:08:25;;;;;;;6.63;2.75;;;12.00;99.90;;;;;;4984415;28;20026;-82
2021/06/22 02:10:51;;;;;;;6.53;2.40;;;12.10;99.90;;;;;;4984401;28;20398;-82
2021/06/22 02:13:31;;;;;;;;;;;12.10;99.90;;;;;;4984660;28;20542;-81
2021/06/22 02:16:06;;;;;;;5.85;3.03;;;12.10;99.90;;;;;;4987977;28;19910;-82
2021/06/22 02:18:32;;;;;;;7.50;2.15;;;12.20;99.90;;;;;;4988124;28;20082;-82
2021/06/22 02:21:00;;;;;;;9.93;2.75;;;12.20;99.90;;;;;;4988138;28;20031;-78
2021/06/22 02:23:27;;;;;;;7.10;2.78;;;12.20;99.90;;;;;;4988364;28;20146;-79
2021/06/22 02:25:54;;;;;;;7.15;3.15;;;12.20;99.90;;;;;;4969499;28;20051;-79
2021/06/22 02:28:22;;;;;;;6.82;2.08;;;12.20;99.90;;;;;;4947182;29;20032;-80
2021/06/22 02:30:49;;;;;;;8.18;3.20;;;12.20;99.90;;;;;;4948528;28;20054;-80
2021/06/22 02:33:15;;;;;;;6.13;2.85;;;12.10;99.90;;;;;;4947251;29;20039;-81
2021/06/22 02:35:42;;;;;;;8.00;3.08;;;12.10;99.90;;;;;;4931512;28;20024;-82
2021/06/22 02:38:12;;;;;;;6.22;2.80;;;12.10;99.90;;;;;;4931620;28;20463;-79
2021/06/22 02:40:44;;;;;;;6.05;2.10;;;12.20;99.90;;;;;;4932035;29;20032;-80
2021/06/22 02:43:09;;;;;;;9.75;3.55;;;12.20;99.90;;;;;;4963131;28;20395;-79
2021/06/22 02:45:36;;;;;;;8.07;3.00;;;12.20;99.90;;;;;;4946810;29;20027;-79
2021/06/22 02:48:10;;;;;;;4.85;1.90;;;12.20;99.90;;;;;;4946730;29;20054;-81
2021/06/22 02:50:37;;;;;;;9.05;3.42;;;12.20;99.90;;;;;;4948148;29;20035;-81
2021/06/22 02:53:03;;;;;;;6.20;3.33;;;12.20;99.90;;;;;;4967370;28;20019;-79
2021/06/22 02:55:29;;;;;;;11.15;4.55;;;12.20;99.90;;;;;;4978649;28;20350;-79
2021/06/22 02:57:58;;;;;;;6.20;2.97;;;12.20;99.90;;;;;;4948020;28;20097;-80
2021/06/22 03:00:28;;;;;;;8.25;4.30;;;12.10;99.90;;;;;;4946844;29;20054;-79
2021/06/22 03:02:57;;;;;;;8.60;4.13;;;12.10;99.90;;;;;;4946736;29;20035;-78
2021/06/22 03:05:24;;;;;;;9.57;3.88;;;12.10;99.90;;;;;;4946630;28;20067;-80
2021/06/22 03:07:50;;;;;;;8.25;3.83;;;12.10;99.90;;;;;;4946681;28;20028;-81
2021/06/22 03:10:19;;;;;;;6.43;3.22;;;12.10;99.90;;;;;;4946611;29;20035;-81
2021/06/22 03:12:46;;;;;;;9.00;3.55;;;12.10;99.90;;;;;;4947505;28;20043;-80
2021/06/22 03:15:25;;;;;;;7.65;3.65;;;12.00;99.90;;;;;;4947832;29;20046;-83
2021/06/22 03:17:52;;;;;;;5.70;2.83;;;12.10;99.90;;;;;;5029726;28;20073;-82
2021/06/22 03:20:22;;;;;;;8.93;3.92;;;12.10;99.90;;;;;;4946875;29;20028;-83
2021/06/22 03:22:48;;;;;;;8.88;4.28;;;12.10;99.90;;;;;;5030262;28;20039;-82
2021/06/22 03:25:15;;;;;;;6.93;3.90;;;12.00;99.90;;;;;;4961991;29;20070;-82
2021/06/22 03:27:49;;;;;;;9.40;3.60;;;12.00;99.90;;;;;;4945589;29;20400;-81
2021/06/22 03:30:30;;;;;;;6.65;3.42;;;12.00;99.90;;;;;;4947735;29;20047;-82
2021/06/22 03:32:55;;;;;;;7.18;3.22;;;12.00;99.90;;;;;;4947504;28;20035;-81
2021/06/22 03:35:26;;;;;;;6.47;3.03;;;11.90;99.90;;;;;;4947763;28;20032;-82
2021/06/22 03:37:51;;;;;;;7.45;3.00;;;11.90;99.90;;;;;;4947776;29;20036;-82
2021/06/22 03:40:19;;;;;;;9.38;4.10;;;11.90;99.90;;;;;;4962279;29;20042;-82
2021/06/22 03:42:46;;;;;;;9.20;4.63;;;11.80;99.90;;;;;;4946243;28;20031;-82
2021/06/22 03:45:12;;;;;;;5.97;4.00;;;11.80;99.90;;;;;;4947040;28;20088;-82
2021/06/22 03:47:41;;;;;;;6.18;3.40;;;11.80;99.90;;;;;;4945492;28;20047;-81
2021/06/22 03:50:08;;;;;;;5.15;3.20;;;11.80;99.90;;;;;;4930674;29;20055;-82
2021/06/22 03:52:35;;;;;;;8.00;3.95;;;11.90;99.90;;;;;;4962809;29;20063;-83
2021/06/22 03:55:01;;;;;;;5.35;2.80;;;11.90;99.90;;;;;;4965130;29;20039;-83
2021/06/22 03:57:31;;;;;;;5.22;2.85;;;12.00;99.90;;;;;;4981009;28;20089;-83
2021/06/22 04:00:13;;;;;;;6.15;2.53;;;11.90;99.90;;;;;;4964491;29;20045;-82
2021/06/22 04:02:56;;;;;;;5.90;3.75;;;11.90;99.90;;;;;;4964644;29;20023;-80
2021/06/22 04:05:22;;;;;;;8.63;4.37;;;11.80;99.90;;;;;;4980772;28;20035;-83
2021/06/22 04:08:00;;;;;;;8.82;4.10;;;11.80;99.90;;;;;;4965859;28;20036;-84
2021/06/22 04:10:28;;;;;;;9.65;3.85;;;11.80;99.90;;;;;;4964496;29;20035;-82
2021/06/22 04:12:54;;;;;;;7.15;4.25;;;11.80;99.90;;;;;;4965588;28;20023;-81
2021/06/22 04:15:20;;;;;;;6.70;2.40;;;11.80;99.90;;;;;;4963956;29;20078;-79
2021/06/22 04:17:46;;;;;;;8.05;4.00;;;11.80;99.90;;;;;;4964427;29;20027;-81
2021/06/22 04:20:13;;;;;;;12.13;3.42;;;11.80;99.90;;;;;;4964171;29;20102;-81
2021/06/22 04:22:39;;;;;;;7.80;3.72;;;11.80;99.90;;;;;;4980267;28;20061;-82
2021/06/22 04:25:09;;;;;;;;;;;11.90;99.90;;;;;;4964198;29;20031;-80
2021/06/22 04:27:35;;;;;;;8.02;3.58;;;11.90;99.90;;;;;;4963442;28;20336;-81
2021/06/22 04:30:02;;;;;;;10.55;3.92;;;11.80;99.90;;;;;;4964888;28;20023;-82
2021/06/22 04:32:28;;;;;;;5.75;2.22;;;11.80;99.90;;;;;;4955560;28;20039;-84
2021/06/22 04:34:53;;;;;;;5.53;1.63;;;11.90;99.90;;;;;;5038081;28;20061;-82
2021/06/22 04:37:19;;;;;;;4.32;1.55;;;11.90;99.90;;;;;;4953282;28;20035;-81
2021/06/22 04:39:45;;;;;;;9.80;2.08;;;11.90;99.90;;;;;;4945143;28;20036;-80
2021/06/22 04:42:10;;;;;;;6.95;2.83;;;11.90;99.90;;;;;;4945994;28;20054;-79
2021/06/22 04:44:36;;;;;;;6.15;2.13;;;12.00;99.90;;;;;;4945947;28;20066;-80
2021/06/22 04:47:04;;;;;;;7.78;2.85;;;12.00;99.90;;;;;;4945395;28;20051;-83
2021/06/22 04:49:29;;;;;;;9.60;2.72;;;12.00;99.90;;;;;;4945775;29;20047;-79
2021/06/22 04:51:55;;;;;;;9.07;3.53;;;12.00;99.90;;;;;;4945715;28;20104;-81
2021/06/22 04:54:23;;;;;;;9.68;2.33;;;12.00;99.90;;;;;;4960037;29;20043;-81
2021/06/22 04:56:48;;;;;;;4.85;1.50;;;12.10;99.90;;;;;;4963570;29;20032;-79
2021/06/22 04:59:14;;;;;;;5.55;3.33;;;12.00;99.90;;;;;;4965988;28;20066;-82
2021/06/22 05:01:43;;;;;;;6.38;2.55;;;12.10;99.90;;;;;;4983467;28;20045;-79
2021/06/22 05:04:09;;;;;;;8.88;3.20;;;12.10;99.90;;;;;;4969732;28;20041;-78
2021/06/22 05:06:34;;;;;;;8.80;3.88;;;12.20;99.90;;;;;;4964623;28;20028;-81
2021/06/22 05:09:00;;;;;;;8.13;2.67;;;12.20;99.90;;;;;;4964014;28;20063;-80
2021/06/22 05:11:26;;;;;;;10.18;4.85;;;12.20;99.90;;;;;;4964147;28;20037;-81
2021/06/22 05:13:51;;;;;;;12.27;4.70;;;12.20;99.90;;;;;;4963171;29;20048;-80
2021/06/22 05:16:17;;;;;;;9.60;4.18;;;12.20;99.90;;;;;;4963785;28;20153;-79
2021/06/22 05:18:45;;;;;;;6.47;3.47;;;12.30;99.90;;;;;;4962949;28;20031;-82
2021/06/22 05:21:11;;;;;;;6.95;3.33;;;12.30;99.90;;;;;;4980079;28;20035;-82
2021/06/22 05:23:37;;;;;;;8.52;3.22;;;12.30;99.90;;;;;;4964671;28;20122;-82
2021/06/22 05:26:03;;;;;;;11.52;5.90;;;12.30;99.90;;;;;;4980017;28;20085;-82
2021/06/22 05:28:29;;;;;;;8.95;5.10;;;12.40;99.90;;;;;;4963014;28;20035;-82
2021/06/22 05:30:54;;;;;;;11.60;4.63;;;12.50;99.90;;;;;;4964203;28;20141;-82
2021/06/22 05:33:20;;;;;;;11.75;5.80;;;12.70;99.90;;;;;;4963154;28;20043;-82
2021/06/22 05:35:46;;;;;;;10.82;4.85;;;12.80;99.90;;;;;;4963357;28;20042;-82
2021/06/22 05:38:11;;;;;;;12.45;5.82;;;12.80;99.90;;;;;;4964108;29;20031;-82
2021/06/22 05:40:37;;;;;;;8.68;5.20;;;12.80;99.90;;;;;;4964139;29;20038;-84
2021/06/22 05:43:03;;;;;;;13.52;6.00;;;12.80;99.90;;;;;;4978727;28;20031;-83
2021/06/22 05:48:48;;;;;;;11.98;6.43;;;13.30;99.90;;;;;;5004066;28;20108;-83
2021/06/22 05:51:14;;;;;;;16.23;6.75;;;13.60;99.90;;;;;;5004571;28;20089;-84
2021/06/22 05:53:40;;;;;;;8.57;5.30;;;13.50;99.90;;;;;;5006040;28;20157;-83
2021/06/22 05:56:05;;;;;;;14.15;6.90;;;13.70;99.90;;;;;;5037230;28;20029;-84
2021/06/22 05:58:33;;;;;;;12.18;6.55;;;13.60;99.90;;;;;;5025625;28;20030;-83
2021/06/22 06:00:58;;;;;;;11.27;6.47;;;13.50;99.90;;;;;;5024412;28;20076;-81
2021/06/22 06:03:24;;;;;;;13.75;6.65;;;13.40;99.90;;;;;;5025469;28;20059;-83
2021/06/22 06:05:50;;;;;;;10.02;6.88;;;13.30;99.90;;;;;;5024409;28;20466;-83
2021/06/22 06:08:15;;;;;;;6.85;4.55;;;13.40;99.90;;;;;;5024099;28;20034;-83
2021/06/22 06:10:41;;;;;;;11.38;5.95;;;13.40;99.90;;;;;;5024143;28;20034;-81
2021/06/22 06:13:07;;;;;;;7.80;4.93;;;13.40;99.90;;;;;;5024067;28;20037;-81
2021/06/22 06:15:33;;;;;;;11.35;6.53;;;13.30;99.90;;;;;;5024170;28;20038;-82
2021/06/22 06:17:59;;;;;;;13.57;8.20;;;13.50;99.90;;;;;;5024011;28;20076;-82
2021/06/22 06:20:27;;;;;;;11.20;6.78;;;13.40;99.90;;;;;;5025249;28;20045;-83
2021/06/22 06:22:53;;;;;;;12.50;7.15;;;13.50;99.90;;;;;;5024951;28;20109;-82
2021/06/22 06:25:18;;;;;;;11.55;6.80;;;13.80;99.90;;;;;;5023752;28;20026;-82
2021/06/22 06:30:16;;;;;;;13.70;5.18;;;14.30;99.90;;;;;;5025207;28;20471;-81
2021/06/22 06:32:44;;;;;;;9.05;5.18;;;14.70;99.90;;;;;;5024679;28;20393;-80
2021/06/22 06:35:10;;;;;;;13.30;7.60;;;15.30;99.90;;;;;;5024936;28;20045;-81
2021/06/22 06:37:37;;;;;;;15.82;7.97;;;15.20;99.90;;;;;;5024816;28;20500;-84
2021/06/22 06:40:04;;;;;;;14.57;8.55;;;15.00;99.90;;;;;;5024962;28;20030;-81
2021/06/22 06:42:29;;;;;;;8.07;4.88;;;15.10;99.90;;;;;;5040019;28;20042;-83
2021/06/22 06:44:55;;;;;;;6.65;3.85;;;15.90;99.90;;;;;;5024872;28;20044;-82
2021/06/22 06:47:22;;;;;;;15.43;6.90;;;16.00;99.90;;;;;;5024415;28;20049;-82
2021/06/22 06:49:47;;;;;;;11.95;5.85;;;15.50;99.90;;;;;;5023499;28;20072;-84
2021/06/22 06:52:13;;;;;;;11.38;7.32;;;15.50;99.90;;;;;;5040006;28;20029;-85
2021/06/22 06:54:39;;;;;;;14.00;7.85;;;15.40;99.90;;;;;;5009884;28;20231;-84
2021/06/22 06:57:05;;;;;;;9.18;4.50;;;15.10;99.90;;;;;;5024817;28;20034;-86
2021/06/22 06:59:30;;;;;;;8.38;6.30;;;15.40;99.90;;;;;;5023452;28;20040;-84
2021/06/22 07:01:56;;;;;;;12.70;6.38;;;15.00;99.90;;;;;;5027610;28;20078;-82
2021/06/22 07:04:22;;;;;;;8.23;5.25;;;14.90;99.90;;;;;;5028297;28;20084;-85
2021/06/22 07:06:48;;;;;;;9.02;6.88;;;15.10;99.90;;;;;;5027923;28;20022;-80
2021/06/22 07:09:14;;;;;;;10.30;5.10;;;15.00;99.90;;;;;;5017954;28;20062;-84
2021/06/22 07:11:39;;;;;;;11.63;6.28;;;15.40;99.90;;;;;;5008719;28;20081;-83
2021/06/22 07:14:05;;;;;;;9.95;5.47;;;15.30;99.90;;;;;;5001766;28;20054;-86
2021/06/22 07:16:33;;;;;;;11.73;5.72;;;15.50;99.90;;;;;;5007688;28;20041;-85
2021/06/22 07:18:59;;;;;;;7.22;4.82;;;15.80;99.90;;;;;;5009254;28;20034;-85
2021/06/22 07:21:25;;;;;;;8.50;4.43;;;15.80;99.90;;;;;;5008637;28;20479;-83
2021/06/22 07:23:52;;;;;;;6.55;4.05;;;16.00;99.90;;;;;;5007163;28;20053;-85
2021/06/22 07:26:17;;;;;;;11.15;5.72;;;15.90;99.90;;;;;;5007867;28;20502;-85
2021/06/22 07:28:44;;;;;;;12.85;5.35;;;15.60;99.90;;;;;;5008198;28;20059;-84
2021/06/22 07:31:11;;;;;;;6.30;4.32;;;15.70;99.90;;;;;;5008857;28;20038;-84
2021/06/22 07:33:38;;;;;;;8.02;4.78;;;15.70;99.90;;;;;;5007029;28;20084;-85
2021/06/22 07:36:07;;;;;;;8.20;5.45;;;16.00;99.90;;;;;;5008480;28;20038;-83
2021/06/22 07:38:32;;;;;;;10.55;5.07;;;15.80;99.90;;;;;;5008231;28;20038;-85
2021/06/22 07:40:58;;;;;;;9.98;5.72;;;15.70;99.90;;;;;;5008468;28;20026;-85
2021/06/22 07:43:24;;;;;;;12.02;6.85;;;15.80;99.90;;;;;;5008432;28;20546;-83
2021/06/22 07:45:50;;;;;;;8.75;5.13;;;15.60;99.90;;;;;;5006737;28;20066;-83
2021/06/22 07:48:17;;;;;;;8.98;5.93;;;15.80;99.90;;;;;;5006888;28;20054;-85
2021/06/22 07:50:43;;;;;;;7.22;4.78;;;16.00;99.90;;;;;;5007133;28;20034;-83
2021/06/22 07:53:09;;;;;;;10.23;5.25;;;16.20;99.90;;;;;;5007998;28;20065;-82
2021/06/22 07:55:35;;;;;;;8.13;5.55;;;16.30;99.90;;;;;;5019861;28;20029;-84
2021/06/22 07:58:01;;;;;;;7.60;5.30;;;16.30;99.90;;;;;;5026172;28;20045;-82
2021/06/22 08:03:06;;;;;;;15.40;7.65;;;16.30;99.90;;;;;;5023111;28;20034;-83
2021/06/22 08:05:31;;;;;;;8.20;5.10;;;16.00;99.90;;;;;;5006486;28;20034;-85
2021/06/22 08:08:02;;;;;;;8.45;4.57;;;16.50;99.90;;;;;;5006848;28;20045;-84
2021/06/22 08:10:28;;;;;;;6.78;5.07;;;16.70;99.90;;;;;;5023136;28;20034;-82
2021/06/22 08:12:53;;;;;;;10.00;5.07;;;16.70;99.90;;;;;;5005800;28;20137;-85
2021/06/22 08:15:19;;;;;;;13.77;7.10;;;16.60;99.90;;;;;;5022036;28;20050;-80
2021/06/22 08:17:45;;;;;;;8.55;5.78;;;16.80;99.90;;;;;;5020180;28;20169;-80
2021/06/22 08:20:11;;;;;;;9.05;5.13;;;17.40;99.90;;;;;;5020941;28;20026;-80
2021/06/22 08:22:37;;;;;;;10.30;6.47;;;17.40;99.90;;;;;;5006933;28;20113;-81
2021/06/22 08:25:05;;;;;;;9.98;5.53;;;16.70;99.90;;;;;;5006765;28;20026;-81
2021/06/22 08:27:31;;;;;;;11.27;5.95;;;16.90;99.90;;;;;;5005524;28;20034;-81
2021/06/22 08:29:57;;;;;;;9.48;5.78;;;17.10;99.90;;;;;;5021588;28;20034;-81
2021/06/22 08:32:23;;;;;;;8.73;5.75;;;17.60;99.90;;;;;;5021901;28;20026;-80
2021/06/22 08:34:48;;;;;;;6.53;5.75;;;18.30;99.90;;;;;;5006817;28;20049;-80
2021/06/22 08:37:14;;;;;;;11.50;6.20;;;18.00;99.90;;;;;;5005939;28;20022;-81
2021/06/22 08:39:40;;;;;;;7.55;5.07;;;18.80;99.90;;;;;;5007133;28;20058;-84
2021/06/22 08:42:11;;;;;;;5.85;4.78;;;19.40;99.90;;;;;;5021987;28;20053;-82
2021/06/22 08:44:38;;;;;;;5.97;4.75;;;19.50;99.90;;;;;;5021078;28;20382;-86
2021/06/22 08:47:04;;;;;;;9.25;5.38;;;19.60;99.90;;;;;;5006015;28;20062;-88
2021/06/22 08:49:33;;;;;;;6.53;5.20;;;20.10;99.90;;;;;;4990017;28;20092;-86
2021/06/22 08:52:00;;;;;;;9.27;5.13;;;19.90;99.90;;;;;;5006172;28;20102;-84
2021/06/22 08:54:27;;;;;;;7.15;4.32;;;19.90;99.90;;;;;;5024477;28;20049;-81
2021/06/22 08:56:55;;;;;;;8.25;5.20;;;20.30;99.90;;;;;;5023796;28;20029;-80
2021/06/22 08:59:21;;;;;;;7.68;5.13;;;20.10;99.90;;;;;;4987006;28;20038;-81
2021/06/22 09:01:47;;;;;;;7.05;4.90;;;20.00;99.90;;;;;;4987231;28;20048;-79
2021/06/22 09:04:12;;;;;;;7.80;4.95;;;19.30;99.90;;;;;;4987313;28;20038;-79
2021/06/22 09:06:41;;;;;;;7.63;5.75;;;19.80;99.90;;;;;;4985522;28;20026;-83
2021/06/22 09:09:09;;;;;;;7.30;5.00;;;19.70;99.90;;;;;;4991538;28;20038;-82
2021/06/22 09:11:35;;;;;;;7.78;4.47;;;20.20;99.90;;;;;;5006294;28;20434;-81
2021/06/22 09:14:04;;;;;;;6.53;4.32;;;20.30;99.90;;;;;;5004956;28;20366;-81
2021/06/22 09:16:31;;;;;;;7.57;5.22;;;20.00;99.90;;;;;;5006133;28;20061;-80
2021/06/22 09:19:09;;;;;;;11.30;6.28;;;19.70;99.90;;;;;;5006301;28;20062;-80
2021/06/22 09:21:39;;;;;;;6.28;5.60;;;19.70;99.90;;;;;;5004620;28;20037;-80
2021/06/22 09:24:24;;;;;;;7.63;5.78;;;19.80;99.90;;;;;;5006266;28;20093;-79
2021/06/22 09:26:51;;;;;;;7.95;5.38;;;20.40;99.90;;;;;;5006003;28;20038;-80
2021/06/22 09:29:21;;;;;;;;;;;19.60;99.90;;;;;;5006672;28;20042;-78
2021/06/22 09:31:55;;;;;;;7.28;3.47;;;20.10;99.90;;;;;;5005977;28;19909;-80
2021/06/22 09:34:24;;;;;;;9.63;5.47;;;19.50;99.90;;;;;;5006112;28;20125;-80
2021/06/22 09:36:58;;;;;;;3.97;3.37;;;19.00;99.90;;;;;;5005899;28;20034;-80
2021/06/22 09:39:30;;;;;;;6.93;3.30;;;19.60;99.90;;;;;;5005494;28;20034;-83
2021/06/22 09:41:57;;;;;;;6.75;3.60;;;20.30;99.90;;;;;;5020687;28;20026;-86
2021/06/22 09:44:24;;;;;;;6.75;3.50;;;19.70;99.90;;;;;;5005966;28;20533;-83
2021/06/22 09:47:01;;;;;;;7.80;3.80;;;20.10;99.90;;;;;;5011335;28;20117;-85
2021/06/22 09:49:31;;;;;;;3.60;2.63;;;20.50;99.90;;;;;;5004407;28;20081;-89
2021/06/22 09:52:10;;;;;;;5.10;3.17;;;20.80;99.90;;;;;;5005563;28;20026;-85
2021/06/22 09:54:48;;;;;;;11.52;4.07;;;19.90;99.90;;;;;;5008030;28;20573;-80
2021/06/22 09:57:27;;;;;;;5.35;3.40;;;20.60;99.90;;;;;;5023228;28;20034;-81
2021/06/22 09:59:57;;;;;;;5.90;3.63;;;20.40;99.90;;;;;;5005981;28;20489;-82
2021/06/22 10:02:24;;;;;;;6.30;3.53;;;19.60;99.90;;;;;;5019477;28;20046;-83
2021/06/22 10:05:00;;;;;;;5.65;4.07;;;19.50;99.90;;;;;;5021122;28;20065;-89
2021/06/22 10:07:29;;;;;;;6.07;3.40;;;20.10;99.90;;;;;;5020355;28;20035;-81
2021/06/22 10:10:05;;;;;;;6.03;3.28;;;20.50;99.90;;;;;;5019545;28;20093;-82
2021/06/22 10:12:32;;;;;;;5.20;2.63;;;20.70;99.90;;;;;;5020040;28;20041;-80
2021/06/22 10:15:03;;;;;;;6.85;3.47;;;20.60;99.90;;;;;;5020583;28;20482;-80
2021/06/22 10:17:31;;;;;;;5.95;2.72;;;20.90;99.90;;;;;;5020655;28;20030;-80
2021/06/22 10:19:59;;;;;;;6.20;3.10;;;21.10;99.90;;;;;;5015756;28;20041;-82
2021/06/22 10:22:27;;;;;;;5.47;3.58;;;20.10;99.90;;;;;;5020205;28;20076;-80
2021/06/22 10:24:56;;;;;;;3.95;2.55;;;20.90;99.90;;;;;;5005580;28;20039;-80
2021/06/22 10:27:23;;;;;;;4.68;3.00;;;21.20;99.90;;;;;;5004632;28;20038;-80
2021/06/22 10:29:51;;;;;;;4.53;3.47;;;20.10;99.90;;;;;;5004353;28;20044;-81
2021/06/22 10:32:18;;;;;;;7.95;3.65;;;20.40;99.90;;;;;;5019133;28;20116;-80
2021/06/22 10:34:49;;;;;;;5.97;2.90;;;21.10;99.90;;;;;;5019592;28;20081;-82
2021/06/22 10:37:22;;;;;;;4.10;2.47;;;21.10;99.90;;;;;;5024673;28;20026;-82
2021/06/22 10:39:58;;;;;;;4.65;2.60;;;21.40;99.90;;;;;;4990253;28;20038;-84
2021/06/22 10:42:24;;;;;;;3.53;2.17;;;21.30;99.90;;;;;;4990713;28;20467;-83
2021/06/22 10:44:58;;;;;;;7.88;4.28;;;21.00;99.90;;;;;;4972855;28;20102;-82
2021/06/22 10:47:38;;;;;;;6.78;3.13;;;21.40;99.90;;;;;;4989031;28;20122;-84
2021/06/22 10:50:13;;;;;;;6.07;4.07;;;20.80;99.90;;;;;;4988503;28;20097;-82
2021/06/22 10:52:42;;;;;;;5.25;3.53;;;19.80;99.90;;;;;;4973263;28;20042;-83
2021/06/22 10:55:21;;;;;;;6.22;3.25;;;19.90;99.90;;;;;;5007967;28;20035;-84
2021/06/22 10:58:03;;;;;;;7.55;3.20;;;20.90;99.90;;;;;;4988161;28;20022;-83
2021/06/22 11:00:51;;;;;;;4.43;2.60;;;20.70;99.90;;;;;;4994340;28;20077;-82
2021/06/22 11:03:24;;;;;;;5.30;2.35;;;21.10;99.90;;;;;;5019339;28;20053;-82
2021/06/22 11:06:12;;;;;;;4.07;1.63;;;21.30;99.90;;;;;;5023395;28;20046;-81
2021/06/22 11:08:42;;;;;;;5.80;3.25;;;21.50;99.90;;;;;;5008583;28;20113;-81
2021/06/22 11:11:08;;;;;;;6.40;3.17;;;20.60;99.90;;;;;;5023963;28;20183;-82
2021/06/22 11:13:44;;;;;;;5.32;2.63;;;20.30;99.90;;;;;;5023805;28;20046;-82
2021/06/22 11:16:19;;;;;;;2.50;1.63;;;21.60;99.90;;;;;;4989102;28;20419;-83
2021/06/22 11:18:51;;;;;;;2.75;1.45;;;22.30;99.90;;;;;;4987852;28;20023;-82
2021/06/22 11:21:21;;;;;;;3.58;1.38;;;21.50;99.90;;;;;;4987724;28;20066;-81
2021/06/22 11:24:08;;;;;;;4.65;2.85;;;21.40;99.90;;;;;;5007215;28;20034;-83
2021/06/22 11:26:50;;;;;;;5.75;2.15;;;21.30;99.90;;;;;;5023409;28;20026;-81
2021/06/22 11:29:42;;;;;;;3.45;1.15;;;21.70;99.90;;;;;;5008518;28;20030;-82
2021/06/22 11:32:08;;;;;;;4.70;2.13;;;22.20;99.90;;;;;;5007305;28;20054;-82
2021/06/22 11:34:51;;;;;;;3.97;2.30;;;22.20;99.90;;;;;;5023198;28;20034;-81
2021/06/22 11:37:16;;;;;;;4.05;1.40;;;22.00;99.90;;;;;;5008156;28;20041;-82
2021/06/22 11:40:12;;;;;;;3.20;1.50;;;22.10;99.90;;;;;;5023051;28;20042;-83
2021/06/22 11:42:40;;;;;;;3.75;1.60;;;21.70;99.90;;;;;;5008065;28;20046;-83
2021/06/22 11:48:03;;;;;;;2.72;1.50;;;22.30;99.90;;;;;;4984694;28;20047;-83
2021/06/22 11:50:30;;;;;;;3.55;1.63;;;22.70;99.90;;;;;;4985442;28;20166;-83
2021/06/22 11:53:04;;;;;;;5.38;1.50;;;22.70;99.90;;;;;;4976788;28;20132;-83
2021/06/22 11:55:40;;;;;;;3.40;0.80;;;22.40;99.90;;;;;;4982141;28;20050;-82
2021/06/22 11:58:06;;;;;;;4.07;0.98;;;22.50;99.90;;;;;;4991913;28;20030;-84
2021/06/22 12:00:33;;;;;;;3.65;1.25;;;22.20;99.90;;;;;;4986657;28;20041;-84
2021/06/22 12:03:01;;;;;;;2.38;0.95;;;22.30;99.90;;;;;;4986859;28;20082;-82
2021/06/22 12:05:29;;;;;;;3.53;1.13;;;22.00;99.90;;;;;;4967075;29;20054;-82
2021/06/22 12:07:56;;;;;;;4.47;1.60;;;22.10;99.90;;;;;;4966917;29;20126;-81
2021/06/22 12:10:25;;;;;;;5.28;1.20;;;21.40;99.90;;;;;;4966222;29;20030;-82
2021/06/22 12:12:52;;;;;;;4.23;1.90;;;21.30;99.90;;;;;;4966198;29;20050;-83
2021/06/22 12:15:32;;;;;;;3.70;1.13;;;21.90;99.90;;;;;;4966234;29;20446;-82
2021/06/22 12:18:04;;;;;;;6.85;1.80;;;22.30;99.90;;;;;;4966663;29;20038;-82
2021/06/22 12:20:32;;;;;;;4.13;1.20;;;22.70;99.90;;;;;;4967530;29;20036;-82
2021/06/22 12:23:05;;;;;;;6.05;2.63;;;22.50;99.90;;;;;;4966222;29;20027;-82
2021/06/22 12:25:44;;;;;;;3.95;1.98;;;21.60;99.90;;;;;;4991404;28;20042;-83
2021/06/22 12:28:11;;;;;;;6.50;1.25;;;22.40;99.90;;;;;;4986621;28;20026;-83
2021/06/22 12:30:42;;;;;;;1.92;0.80;;;22.20;99.90;;;;;;5006798;28;20057;-83
2021/06/22 12:33:09;;;;;;;2.70;1.00;;;22.60;99.90;;;;;;4995007;28;20031;-81
2021/06/22 12:35:35;;;;;;;4.88;1.17;;;23.10;99.90;;;;;;5007160;28;20052;-82
2021/06/22 12:38:08;;;;;;;3.15;0.75;;;22.30;99.90;;;;;;5022366;28;20086;-85
2021/06/22 12:40:54;;;;;;;2.85;1.25;;;22.00;99.90;;;;;;5007170;28;20061;-83
2021/06/22 12:43:37;;;;;;;2.78;1.25;;;22.40;99.90;;;;;;5007253;28;20124;-83
2021/06/22 12:46:04;;;;;;;4.88;1.25;;;21.70;99.90;;;;;;5022013;28;20479;-84
2021/06/22 12:48:30;;;;;;;3.38;0.77;;;21.30;99.90;;;;;;5007470;28;20109;-83
2021/06/22 12:50:56;;;;;;;1.48;0.60;;;21.90;99.90;;;;;;5006443;28;20038;-82
2021/06/22 12:53:22;;;;;;;3.33;1.10;;;22.10;99.90;;;;;;5007603;28;20034;-83
2021/06/22 12:55:49;;;;;;;3.17;1.20;;;21.80;99.90;;;;;;5007629;28;20138;-83
2021/06/22 12:58:16;;;;;;;2.17;0.60;;;21.30;99.90;;;;;;5005919;28;20030;-81
2021/06/22 13:00:47;;;;;;;3.58;0.85;;;21.40;99.90;;;;;;5007734;28;20033;-82
2021/06/22 13:03:17;;;;;;;6.60;0.82;;;21.00;99.90;;;;;;5007547;28;20060;-81
2021/06/22 13:05:48;;;;;;;1.90;0.80;;;21.30;99.90;;;;;;5006163;28;20030;-81